Vientiane, Lao Peoples Republic

06:33 AM ICT del 26 Ottobre 2014 (GMT +0700)
Wattay International | Change Station
CLOSE
Current Station
Aeroporto
Location: Vientiane,
Altitudine: 561 ft
Stazioni meteo nelle vicinanze

Alt. 561 ft 17.95 °N, 102.57 °E | Updated 33 minutes ago

Scattered Clouds
Nubi sparse
77 °F
Sembra 77 °F
N
2
Vento Variabile Vento da Nord

Oggi
Massima -- | Minima -- °F
--% Possibilità di precip.
Ieri
Massima -- | Minima -- °F
Precip. -- in
6:06 AM 5:40 PM
Luna crescente, 5% visible
Pressione 29.92 in
Visibilità 2.5 miglia
Nuvole Nubi sparse 4000 ft
Punto di rugiada 72 °F
Umidità 83%
Piovosità 0.00 in
Spessore del manto nevoso Non disponibile.
Raggi UV 0 fuori da 12
Polline Non disponibile.
Qualità dell'aria Non disponibile.
Flu Activity Non disponibile.
METAR VLVT 252300Z 36002KT 4000 BR SCT040 25/22 Q1013 NOSIG

More Conditions Fewer Conditions

Pressione 29.92 in
Visibilità 2.5 miglia
Nuvole Nubi sparse 4000 ft
Punto di rugiada 72 °F
Umidità 83%
Piovosità 0.00 in
Spessore del manto nevoso Non disponibile.
Raggi UV 0 fuori da 12
Polline Non disponibile.
Qualità dell'aria Non disponibile.
Flu Activity Non disponibile.
METAR VLVT 252300Z 36002KT 4000 BR SCT040 25/22 Q1013 NOSIG

More Conditions Fewer Conditions

10-Day Weather Forecast

Almanac

Astronomia

Oct. 26, 2014 Alba Tramonto
Ora attuale 06:06 ICT 17:40 ICT
Crepuscolo civile 05:44 ICT 18:03 ICT
Crepuscolo nautico 05:18 ICT 18:28 ICT
Crepuscolo astronomico 04:53 ICT 18:54 ICT
Luna 08:00 ICT (10/26) 19:39 ICT (10/26)
Estensione della luce visibile 12h 18m
Lunghezza del giorno
11h 34m
Tomorrow will be 0m 55s shorter.
Luna crescente, 5% of the Moon is Illuminated
Ott 25
Luna crescente
Ott 30
Primo quarto
Nov 6
Luna piena
Nov 14
Ultimo quarto
Nov 22
Nuovo

Minime e massime di ieri

Massime Regione Minime Regione

Community

WunderPhotos

Upload Photos

1,765,034 foto caricate!

Nearby

Qualità dell'aria

Not available.

Profondità neve

Not available.

Attività sismica

Città  Distanza Mag. Data & Ora
Non sono state riportate attività sismiche nelle vicinanze.
Minimo Magnitudo Mostrato è 2.5.

Temperature delle acque costiere

Località Temperatura
Nessun dato dalle stazioni

Stazioni meteo nelle vicinanze